createdAt,value
2023-08-28T00:00:11.375Z,15.40
2023-08-28T00:02:39.045Z,15.50
2023-08-28T00:05:06.839Z,15.50
2023-08-28T00:07:34.978Z,15.40
2023-08-28T00:10:02.349Z,15.40
2023-08-28T00:12:29.637Z,15.30
2023-08-28T00:14:56.685Z,15.30
2023-08-28T00:17:24.041Z,15.30
2023-08-28T00:19:51.206Z,15.10
2023-08-28T00:22:19.434Z,15.20
2023-08-28T00:24:46.593Z,15.10
2023-08-28T00:27:13.711Z,15.10
2023-08-28T00:29:40.952Z,15.10
2023-08-28T00:32:08.562Z,15.10
2023-08-28T00:34:35.746Z,15.00
2023-08-28T00:37:04.140Z,14.90
2023-08-28T00:39:31.137Z,14.90
2023-08-28T00:41:58.364Z,14.80
2023-08-28T00:44:25.606Z,14.90
2023-08-28T00:46:52.720Z,14.80
2023-08-28T00:49:19.891Z,14.80
2023-08-28T00:51:47.269Z,14.90
2023-08-28T00:54:15.281Z,14.90
2023-08-28T00:56:43.477Z,15.10
2023-08-28T00:59:10.968Z,15.00
2023-08-28T01:01:38.721Z,15.00
2023-08-28T01:04:06.432Z,14.90
2023-08-28T01:06:58.705Z,14.90
2023-08-28T01:09:54.380Z,14.90
2023-08-28T01:12:57.277Z,15.00
2023-08-28T01:15:25.905Z,15.00
2023-08-28T01:17:59.571Z,15.00
2023-08-28T01:20:31.461Z,14.90
2023-08-28T01:22:58.634Z,14.90
2023-08-28T01:25:29.712Z,14.90
2023-08-28T01:28:01.427Z,15.00
2023-08-28T01:30:28.600Z,14.90
2023-08-28T01:32:55.722Z,14.90
2023-08-28T01:35:27.431Z,14.90
2023-08-28T01:38:22.883Z,14.80
2023-08-28T01:41:04.608Z,14.80
2023-08-28T01:43:42.028Z,14.90
2023-08-28T01:46:11.657Z,15.00
2023-08-28T01:48:49.315Z,14.90
2023-08-28T01:51:16.409Z,14.90
2023-08-28T01:53:43.416Z,14.90
2023-08-28T01:56:10.507Z,14.90
2023-08-28T01:59:01.904Z,15.00
2023-08-28T02:01:29.140Z,14.90
2023-08-28T02:03:58.330Z,14.90
2023-08-28T02:06:29.663Z,14.90
2023-08-28T02:08:56.667Z,14.90
2023-08-28T02:11:23.818Z,14.80
2023-08-28T02:13:50.951Z,15.00
2023-08-28T02:16:20.247Z,15.00
2023-08-28T02:18:49.733Z,15.00
2023-08-28T02:21:16.913Z,14.90
2023-08-28T02:23:45.911Z,14.80
2023-08-28T02:26:12.898Z,14.90
2023-08-28T02:28:43.690Z,14.90
2023-08-28T02:31:12.741Z,15.00
2023-08-28T02:33:39.946Z,14.90
2023-08-28T02:36:14.611Z,14.90
2023-08-28T02:38:43.061Z,14.90
2023-08-28T02:41:12.187Z,14.90
2023-08-28T02:43:39.742Z,14.70
2023-08-28T02:46:07.007Z,14.80
2023-08-28T02:48:34.056Z,14.90
2023-08-28T02:51:02.356Z,14.80
2023-08-28T02:53:31.544Z,14.70
2023-08-28T02:56:25.125Z,14.70
2023-08-28T02:58:54.408Z,14.60
2023-08-28T03:01:21.859Z,14.60
2023-08-28T03:03:49.340Z,14.50
2023-08-28T03:06:19.577Z,14.50
2023-08-28T03:08:49.008Z,14.60
2023-08-28T03:11:16.092Z,14.60
2023-08-28T03:13:43.085Z,14.70
2023-08-28T03:16:11.267Z,14.70
2023-08-28T03:18:38.326Z,14.80
2023-08-28T03:21:06.617Z,14.70
2023-08-28T03:23:38.460Z,14.70
2023-08-28T03:26:05.669Z,14.70
2023-08-28T03:28:32.749Z,14.70
2023-08-28T03:31:02.301Z,14.70
2023-08-28T03:33:29.536Z,14.70
2023-08-28T03:35:58.899Z,14.60
2023-08-28T03:38:28.724Z,14.60
2023-08-28T03:41:02.192Z,14.60
2023-08-28T03:43:31.256Z,14.60
2023-08-28T03:46:01.083Z,14.50
2023-08-28T03:48:28.292Z,14.60
2023-08-28T03:50:56.724Z,14.50
2023-08-28T03:53:26.438Z,14.60
2023-08-28T03:55:54.773Z,14.70
2023-08-28T03:58:23.450Z,14.70
2023-08-28T04:00:56.763Z,14.70
2023-08-28T04:03:23.958Z,14.70
2023-08-28T04:05:53.389Z,14.60
2023-08-28T04:08:24.226Z,14.60
2023-08-28T04:10:54.528Z,14.70
2023-08-28T04:13:22.382Z,14.60
2023-08-28T04:15:53.199Z,14.80
2023-08-28T04:18:20.311Z,14.80
2023-08-28T04:20:47.387Z,14.80
2023-08-28T04:23:14.522Z,14.70
2023-08-28T04:25:49.586Z,14.70
2023-08-28T04:28:17.438Z,14.70
2023-08-28T04:30:44.725Z,14.70
2023-08-28T04:33:18.087Z,14.70
2023-08-28T04:35:45.024Z,14.80
2023-08-28T04:38:14.703Z,14.80
2023-08-28T04:40:43.614Z,14.80
2023-08-28T04:43:10.639Z,14.70
2023-08-28T04:45:39.614Z,14.60
2023-08-28T04:48:07.014Z,14.60
2023-08-28T04:50:34.083Z,14.50
2023-08-28T04:53:02.646Z,14.50
2023-08-28T04:55:32.211Z,14.50
2023-08-28T04:58:01.471Z,14.50
2023-08-28T05:00:28.636Z,14.50
2023-08-28T05:02:59.136Z,14.50
2023-08-28T05:05:26.346Z,14.50
2023-08-28T05:07:53.571Z,14.50
2023-08-28T05:10:22.302Z,14.60
2023-08-28T05:12:49.627Z,14.60
2023-08-28T05:15:16.752Z,14.60
2023-08-28T05:17:43.806Z,14.60
2023-08-28T05:20:14.640Z,14.60
2023-08-28T05:22:41.872Z,14.60
2023-08-28T05:25:12.465Z,14.60
2023-08-28T05:27:39.499Z,14.60
2023-08-28T05:30:08.004Z,14.60
2023-08-28T05:32:39.389Z,14.60
2023-08-28T05:35:09.352Z,14.60
2023-08-28T05:37:38.110Z,14.60
2023-08-28T05:40:14.076Z,14.60
2023-08-28T05:42:42.265Z,14.70
2023-08-28T05:45:13.539Z,14.70
2023-08-28T05:47:42.770Z,14.70
2023-08-28T05:50:10.216Z,14.70
2023-08-28T05:52:38.504Z,14.70
2023-08-28T05:55:06.732Z,14.80
2023-08-28T05:57:40.272Z,14.90
2023-08-28T06:00:09.468Z,14.90
2023-08-28T06:02:36.546Z,14.90
2023-08-28T06:05:07.156Z,14.90
2023-08-28T06:07:34.505Z,14.90
2023-08-28T06:10:01.823Z,14.90
2023-08-28T06:12:29.142Z,15.00
2023-08-28T06:14:56.693Z,15.10
2023-08-28T06:17:24.977Z,15.00
2023-08-28T06:19:53.679Z,14.90
2023-08-28T06:22:20.732Z,14.80
2023-08-28T06:24:53.930Z,14.80
2023-08-28T06:27:21.296Z,15.00
2023-08-28T06:29:50.483Z,15.00
2023-08-28T06:32:17.601Z,15.10
2023-08-28T06:34:44.740Z,15.00
2023-08-28T06:37:11.774Z,15.00
2023-08-28T06:39:39.049Z,15.10
2023-08-28T06:42:06.235Z,15.20
2023-08-28T06:44:33.207Z,15.20
2023-08-28T06:47:00.255Z,15.10
2023-08-28T06:49:28.477Z,15.10
2023-08-28T06:51:57.307Z,15.10
2023-08-28T06:54:24.426Z,15.00
2023-08-28T06:56:51.472Z,15.10
2023-08-28T06:59:20.980Z,15.10
2023-08-28T07:01:48.130Z,15.20
2023-08-28T07:04:15.540Z,15.10
2023-08-28T07:06:44.655Z,15.10
2023-08-28T07:09:13.055Z,15.20
2023-08-28T07:11:40.151Z,15.30
2023-08-28T07:14:08.630Z,15.30
2023-08-28T07:16:35.581Z,15.10
2023-08-28T07:19:02.685Z,15.20
2023-08-28T07:21:29.776Z,15.20
2023-08-28T07:23:56.825Z,15.30
2023-08-28T07:26:25.552Z,15.10
2023-08-28T07:28:54.497Z,15.30
2023-08-28T07:31:21.598Z,15.30
2023-08-28T07:33:50.570Z,15.30
2023-08-28T07:36:24.869Z,15.40
2023-08-28T07:38:51.902Z,15.40
2023-08-28T07:41:21.293Z,15.40
2023-08-28T07:43:51.612Z,15.50
2023-08-28T07:46:18.733Z,15.50
2023-08-28T07:48:47.013Z,15.50
2023-08-28T07:51:15.750Z,15.50
2023-08-28T07:53:42.726Z,15.50
2023-08-28T07:56:12.258Z,15.50
2023-08-28T07:58:39.461Z,15.60
2023-08-28T08:01:10.143Z,15.60
2023-08-28T08:03:41.288Z,15.50
2023-08-28T08:06:09.105Z,15.60
2023-08-28T08:08:36.192Z,15.50
2023-08-28T08:11:03.203Z,15.50
2023-08-28T08:13:30.456Z,15.60
2023-08-28T08:16:05.774Z,15.70
2023-08-28T08:18:33.118Z,15.70
2023-08-28T08:21:00.178Z,15.70
2023-08-28T08:23:27.983Z,15.70
2023-08-28T08:25:57.804Z,15.50
2023-08-28T08:28:24.941Z,15.50
2023-08-28T08:30:51.964Z,15.70
2023-08-28T08:33:24.872Z,15.70
2023-08-28T08:35:52.256Z,15.80
2023-08-28T08:38:21.988Z,15.80
2023-08-28T08:40:54.499Z,15.80
2023-08-28T08:43:21.930Z,15.70
2023-08-28T08:45:51.519Z,15.80
2023-08-28T08:48:21.355Z,15.80
2023-08-28T08:50:49.154Z,15.70
2023-08-28T08:53:33.254Z,15.90
2023-08-28T08:56:04.550Z,15.90
2023-08-28T08:58:32.711Z,15.90
2023-08-28T09:01:01.074Z,15.90
2023-08-28T09:03:30.115Z,15.90
2023-08-28T09:05:57.527Z,15.90
2023-08-28T09:08:29.823Z,16.10
2023-08-28T09:11:05.797Z,16.20
2023-08-28T09:13:33.171Z,16.20
2023-08-28T09:16:02.153Z,16.20
2023-08-28T09:18:29.177Z,16.20
2023-08-28T09:21:13.151Z,16.30
2023-08-28T09:23:47.245Z,16.20
2023-08-28T09:26:34.124Z,16.10
2023-08-28T09:29:06.492Z,16.10
2023-08-28T09:31:35.786Z,16.00
2023-08-28T09:34:08.131Z,16.00
2023-08-28T09:36:41.158Z,15.90
2023-08-28T09:39:11.038Z,15.80
2023-08-28T09:41:49.271Z,15.80
2023-08-28T09:44:22.325Z,15.80
2023-08-28T09:46:50.378Z,16.00
2023-08-28T09:49:17.776Z,16.00
2023-08-28T09:51:51.893Z,16.00
2023-08-28T09:54:21.057Z,16.40
2023-08-28T09:56:48.100Z,16.60
2023-08-28T09:59:16.917Z,16.70
2023-08-28T10:01:45.360Z,16.70
2023-08-28T10:04:15.160Z,16.90
2023-08-28T10:06:53.349Z,17.00
2023-08-28T10:09:23.155Z,17.10
2023-08-28T10:11:56.422Z,17.10
2023-08-28T10:14:25.416Z,17.10
2023-08-28T10:17:00.510Z,17.20
2023-08-28T10:19:39.592Z,17.20
2023-08-28T10:22:10.028Z,17.10
2023-08-28T10:24:43.280Z,17.30
2023-08-28T10:27:12.227Z,17.30
2023-08-28T10:29:42.382Z,17.20
2023-08-28T10:32:11.008Z,17.20
2023-08-28T10:34:41.769Z,17.20
2023-08-28T10:37:22.181Z,17.40
2023-08-28T10:40:02.369Z,17.50
2023-08-28T10:42:30.969Z,17.60
2023-08-28T10:44:59.734Z,17.70
2023-08-28T10:47:33.829Z,17.70
2023-08-28T10:50:02.047Z,17.70
2023-08-28T10:52:29.541Z,17.60
2023-08-28T10:55:04.070Z,17.40
2023-08-28T10:57:32.340Z,17.20
2023-08-28T11:00:16.308Z,17.20
2023-08-28T11:03:06.729Z,17.20
2023-08-28T11:05:36.653Z,17.20
2023-08-28T11:08:08.039Z,17.20
2023-08-28T11:10:37.025Z,17.10
2023-08-28T11:13:07.054Z,17.00
2023-08-28T11:15:43.087Z,16.90
2023-08-28T11:18:30.271Z,16.90
2023-08-28T11:21:04.259Z,16.90
2023-08-28T11:23:37.105Z,16.70
2023-08-28T11:26:27.222Z,16.70
2023-08-28T11:28:54.420Z,16.60
2023-08-28T11:31:22.189Z,16.70
2023-08-28T11:33:50.727Z,16.70
2023-08-28T11:36:21.154Z,16.70
2023-08-28T11:38:49.613Z,16.60
2023-08-28T11:41:17.667Z,16.60
2023-08-28T11:43:47.686Z,16.60
2023-08-28T11:46:16.785Z,16.60
2023-08-28T11:48:51.512Z,16.70
2023-08-28T11:51:28.507Z,16.70
2023-08-28T11:53:56.911Z,16.80
2023-08-28T11:56:25.194Z,16.80
2023-08-28T11:58:56.799Z,16.80
2023-08-28T12:01:29.197Z,16.90
2023-08-28T12:04:06.309Z,16.80
2023-08-28T12:06:40.938Z,16.90
2023-08-28T12:09:23.105Z,16.80
2023-08-28T12:11:52.519Z,16.80
2023-08-28T12:14:21.423Z,16.70
2023-08-28T12:16:54.907Z,16.70
2023-08-28T12:19:25.054Z,16.60
2023-08-28T12:21:52.322Z,16.40
2023-08-28T12:24:19.444Z,16.20
2023-08-28T12:26:46.540Z,15.90
2023-08-28T12:29:14.879Z,15.90
2023-08-28T12:31:44.292Z,15.90
2023-08-28T12:34:17.670Z,16.10
2023-08-28T12:36:46.831Z,16.10
2023-08-28T12:39:16.861Z,16.10
2023-08-28T12:41:51.536Z,16.20
2023-08-28T12:44:19.070Z,16.20
2023-08-28T12:46:46.338Z,16.10
2023-08-28T12:49:14.121Z,16.10
2023-08-28T12:51:46.267Z,16.10
2023-08-28T12:54:14.350Z,16.10
2023-08-28T12:56:41.413Z,16.10
2023-08-28T12:59:08.444Z,16.00
2023-08-28T13:01:37.910Z,16.00
2023-08-28T13:04:06.775Z,16.00
2023-08-28T13:06:34.276Z,16.00
2023-08-28T13:09:01.371Z,15.90
2023-08-28T13:11:30.652Z,15.70
2023-08-28T13:13:58.840Z,15.70
2023-08-28T13:16:32.032Z,15.70
2023-08-28T13:19:24.966Z,15.70
2023-08-28T13:21:54.268Z,15.70
2023-08-28T13:24:43.704Z,15.70
2023-08-28T13:27:13.743Z,15.70
2023-08-28T13:29:45.244Z,15.80
2023-08-28T13:32:16.629Z,15.70
2023-08-28T13:34:43.844Z,15.90
2023-08-28T13:37:17.180Z,15.80
2023-08-28T13:39:53.652Z,15.80
2023-08-28T13:42:28.385Z,15.90
2023-08-28T13:44:57.653Z,15.90
2023-08-28T13:47:26.051Z,15.90
2023-08-28T13:49:54.090Z,16.00
2023-08-28T13:52:24.502Z,16.20
2023-08-28T13:54:51.968Z,16.40
2023-08-28T13:57:21.238Z,16.50
2023-08-28T13:59:54.409Z,16.60
2023-08-28T14:02:31.399Z,16.50
2023-08-28T14:05:00.610Z,16.40
2023-08-28T14:07:29.628Z,16.30
2023-08-28T14:09:59.893Z,16.20
2023-08-28T14:12:30.616Z,16.10
2023-08-28T14:14:57.748Z,16.10
2023-08-28T14:17:27.061Z,16.10
2023-08-28T14:19:54.092Z,16.10
2023-08-28T14:22:22.999Z,16.10
2023-08-28T14:24:56.018Z,16.20
2023-08-28T14:27:27.892Z,16.30
2023-08-28T14:30:02.969Z,16.30
2023-08-28T14:32:30.291Z,16.20
2023-08-28T14:34:59.457Z,16.20
2023-08-28T14:37:26.722Z,16.10
2023-08-28T14:39:53.928Z,16.00
2023-08-28T14:42:31.582Z,16.10
2023-08-28T14:45:03.026Z,16.10
2023-08-28T14:47:32.197Z,16.10
2023-08-28T14:50:06.758Z,16.20
2023-08-28T14:53:04.120Z,16.20
2023-08-28T14:55:37.612Z,16.20
2023-08-28T14:58:05.954Z,16.20
2023-08-28T15:00:37.448Z,16.10
2023-08-28T15:03:05.357Z,16.00
2023-08-28T15:05:34.007Z,16.00
2023-08-28T15:10:31.739Z,15.80
2023-08-28T15:13:00.970Z,15.80
2023-08-28T15:15:29.624Z,15.70
2023-08-28T15:17:58.731Z,15.70
2023-08-28T15:20:25.892Z,15.60
2023-08-28T15:22:53.008Z,15.50
2023-08-28T15:25:20.352Z,15.50
2023-08-28T15:27:47.547Z,15.50
2023-08-28T15:30:14.955Z,15.50
2023-08-28T15:32:42.520Z,15.50
2023-08-28T15:35:13.336Z,15.40
2023-08-28T15:37:43.523Z,15.40
2023-08-28T15:40:14.195Z,15.40
2023-08-28T15:42:43.295Z,15.50
2023-08-28T15:45:10.774Z,15.60
2023-08-28T15:47:51.584Z,15.60
2023-08-28T15:50:22.813Z,15.60
2023-08-28T15:52:50.057Z,15.60
2023-08-28T15:55:17.335Z,15.60
2023-08-28T15:57:48.815Z,15.60
2023-08-28T16:00:16.381Z,15.60
2023-08-28T16:02:43.486Z,15.50
2023-08-28T16:05:10.913Z,15.50
2023-08-28T16:07:38.152Z,15.40
2023-08-28T16:10:06.278Z,15.50
2023-08-28T16:12:33.464Z,15.50
2023-08-28T16:15:00.624Z,15.50
2023-08-28T16:17:27.664Z,15.50
2023-08-28T16:19:54.720Z,15.60
2023-08-28T16:22:24.108Z,15.50
2023-08-28T16:24:51.422Z,15.50
2023-08-28T16:27:21.861Z,15.50
2023-08-28T16:29:56.560Z,15.40
2023-08-28T16:32:26.044Z,15.40
2023-08-28T16:34:54.821Z,15.40
2023-08-28T16:37:23.827Z,15.40
2023-08-28T16:39:50.970Z,15.30
2023-08-28T16:42:18.527Z,15.30
2023-08-28T16:44:46.500Z,15.30
2023-08-28T16:47:13.666Z,15.30
2023-08-28T16:49:41.094Z,15.30
2023-08-28T16:52:12.438Z,15.30
2023-08-28T16:54:55.757Z,15.30
2023-08-28T16:57:25.599Z,15.40
2023-08-28T16:59:54.825Z,15.40
2023-08-28T17:02:21.944Z,15.30
2023-08-28T17:04:49.039Z,15.20
2023-08-28T17:07:26.345Z,15.20
2023-08-28T17:09:58.545Z,15.10
2023-08-28T17:12:26.977Z,15.10
2023-08-28T17:14:58.026Z,15.20
2023-08-28T17:17:25.466Z,15.20
2023-08-28T17:19:53.841Z,15.30
2023-08-28T17:22:23.392Z,15.40
2023-08-28T17:25:01.644Z,15.30
2023-08-28T17:27:41.693Z,15.30
2023-08-28T17:30:16.865Z,15.30
2023-08-28T17:32:50.867Z,15.30
2023-08-28T17:35:20.474Z,15.30
2023-08-28T17:37:56.963Z,15.30
2023-08-28T17:40:38.726Z,15.30
2023-08-28T17:43:16.264Z,15.30
2023-08-28T17:45:51.341Z,15.20
2023-08-28T17:48:23.935Z,15.20
2023-08-28T17:50:59.582Z,15.20
2023-08-28T17:53:30.023Z,15.30
2023-08-28T17:56:06.419Z,15.20
2023-08-28T17:58:57.676Z,15.10
2023-08-28T18:01:33.126Z,15.10
2023-08-28T18:04:31.562Z,15.20
2023-08-28T18:06:59.011Z,15.10
2023-08-28T18:09:36.693Z,15.10
2023-08-28T18:12:16.303Z,15.10
2023-08-28T18:15:07.468Z,15.10
2023-08-28T18:17:42.044Z,15.00
2023-08-28T18:20:23.599Z,15.00
2023-08-28T18:22:56.924Z,15.00
2023-08-28T18:25:29.891Z,15.00
2023-08-28T18:28:06.932Z,15.00
2023-08-28T18:30:37.940Z,15.00
2023-08-28T18:33:49.540Z,15.00
2023-08-28T18:36:40.001Z,15.00
2023-08-28T18:39:33.433Z,15.00
2023-08-28T18:42:17.020Z,14.90
2023-08-28T18:44:48.899Z,14.90
2023-08-28T18:47:22.310Z,14.80
2023-08-28T18:50:05.373Z,14.80
2023-08-28T18:52:38.724Z,14.80
2023-08-28T18:55:30.103Z,14.80
2023-08-28T18:58:02.723Z,14.80
2023-08-28T19:00:41.391Z,14.80
2023-08-28T19:03:21.900Z,14.80
2023-08-28T19:06:07.962Z,14.70
2023-08-28T19:08:41.478Z,14.70
2023-08-28T19:11:15.623Z,14.80
2023-08-28T19:13:45.304Z,14.80
2023-08-28T19:16:16.091Z,14.70
2023-08-28T19:18:43.326Z,14.70
2023-08-28T19:21:22.936Z,14.60
2023-08-28T19:23:50.155Z,14.60
2023-08-28T19:26:44.342Z,14.60
2023-08-28T19:29:13.415Z,14.60
2023-08-28T19:31:49.730Z,14.60
2023-08-28T19:34:18.134Z,14.70
2023-08-28T19:36:45.529Z,14.60
2023-08-28T19:39:14.234Z,14.50
2023-08-28T19:41:43.045Z,14.50
2023-08-28T19:44:10.379Z,14.50
2023-08-28T19:47:09.860Z,14.50
2023-08-28T19:49:43.127Z,14.40
2023-08-28T19:52:21.015Z,14.40
2023-08-28T19:54:52.010Z,14.40
2023-08-28T19:57:36.040Z,14.40
2023-08-28T20:00:06.970Z,14.40
2023-08-28T20:02:37.354Z,14.40
2023-08-28T20:05:16.952Z,14.30
2023-08-28T20:08:06.804Z,14.30
2023-08-28T20:10:36.345Z,14.30
2023-08-28T20:13:10.868Z,14.30
2023-08-28T20:15:44.271Z,14.30
2023-08-28T20:18:13.386Z,14.40
2023-08-28T20:20:45.703Z,14.30
2023-08-28T20:23:21.518Z,14.30
2023-08-28T20:25:57.737Z,14.30
2023-08-28T20:28:24.883Z,14.30
2023-08-28T20:30:52.273Z,14.30
2023-08-28T20:33:20.597Z,14.30
2023-08-28T20:35:47.736Z,14.20
2023-08-28T20:38:22.027Z,14.30
2023-08-28T20:40:50.229Z,14.20
2023-08-28T20:43:19.883Z,14.30
2023-08-28T20:45:47.228Z,14.30
2023-08-28T20:48:22.443Z,14.30
2023-08-28T20:51:02.060Z,14.20
2023-08-28T20:53:32.833Z,14.20
2023-08-28T20:56:00.366Z,14.20
2023-08-28T20:58:29.300Z,14.20
2023-08-28T21:00:57.654Z,14.20
2023-08-28T21:03:26.072Z,14.20
2023-08-28T21:05:56.821Z,14.20
2023-08-28T21:08:28.396Z,14.20
2023-08-28T21:11:01.593Z,14.20
2023-08-28T21:13:29.012Z,14.20
2023-08-28T21:15:59.010Z,14.10
2023-08-28T21:18:29.195Z,14.20
2023-08-28T21:20:58.758Z,14.20
2023-08-28T21:23:28.008Z,14.20
2023-08-28T21:26:10.210Z,14.20
2023-08-28T21:28:38.065Z,14.20
2023-08-28T21:31:06.758Z,14.20
2023-08-28T21:33:37.364Z,14.20
2023-08-28T21:36:09.186Z,14.20
2023-08-28T21:38:36.752Z,14.30
2023-08-28T21:41:09.091Z,14.20
2023-08-28T21:43:37.366Z,14.20
2023-08-28T21:46:06.133Z,14.20
2023-08-28T21:48:33.804Z,14.20
2023-08-28T21:51:04.231Z,14.20
2023-08-28T21:53:31.889Z,14.10
2023-08-28T21:55:59.081Z,14.20
2023-08-28T21:58:43.830Z,14.20
2023-08-28T22:01:12.851Z,14.10
2023-08-28T22:03:40.015Z,14.20
2023-08-28T22:06:07.163Z,14.20
2023-08-28T22:08:35.124Z,14.20
2023-08-28T22:11:03.900Z,14.20
2023-08-28T22:13:30.884Z,14.20
2023-08-28T22:16:00.233Z,14.20
2023-08-28T22:18:27.407Z,14.20
2023-08-28T22:20:56.586Z,14.10
2023-08-28T22:23:23.758Z,14.20
2023-08-28T22:25:52.078Z,14.10
2023-08-28T22:28:20.999Z,14.10
2023-08-28T22:30:49.896Z,14.10
2023-08-28T22:33:17.046Z,14.10
2023-08-28T22:35:46.050Z,14.10
2023-08-28T22:38:13.205Z,14.10
2023-08-28T22:40:44.211Z,14.20
2023-08-28T22:43:11.431Z,14.10
2023-08-28T22:45:38.757Z,14.10
2023-08-28T22:48:10.444Z,14.10
2023-08-28T22:50:37.632Z,14.10
2023-08-28T22:53:05.016Z,14.10
2023-08-28T22:55:32.456Z,14.10
2023-08-28T22:57:59.698Z,14.10
2023-08-28T23:00:29.091Z,14.20
2023-08-28T23:03:05.735Z,14.10
2023-08-28T23:05:34.559Z,14.20
2023-08-28T23:08:01.647Z,14.10
2023-08-28T23:10:30.701Z,14.10
2023-08-28T23:12:57.952Z,14.10
2023-08-28T23:15:26.084Z,14.10
2023-08-28T23:17:55.603Z,14.00
2023-08-28T23:20:24.022Z,14.10
2023-08-28T23:22:53.876Z,14.10
2023-08-28T23:25:27.755Z,14.10
2023-08-28T23:27:57.893Z,14.10
2023-08-28T23:30:27.624Z,14.10
2023-08-28T23:32:54.805Z,14.00
2023-08-28T23:35:21.896Z,14.10
2023-08-28T23:37:49.051Z,14.10
2023-08-28T23:40:17.533Z,14.10
2023-08-28T23:42:44.721Z,14.00
2023-08-28T23:45:12.155Z,14.10
2023-08-28T23:47:39.395Z,14.00
2023-08-28T23:50:07.265Z,14.00
2023-08-28T23:52:36.222Z,14.10
2023-08-28T23:55:07.826Z,14.10
2023-08-28T23:57:38.079Z,14.00
